createdAt,value
2022-12-05T00:01:15.390Z,135.87
2022-12-05T00:03:43.525Z,136.10
2022-12-05T00:06:11.405Z,131.80
2022-12-05T00:08:39.360Z,161.63
2022-12-05T00:11:12.101Z,111.40
2022-12-05T00:13:40.811Z,133.67
2022-12-05T00:16:09.822Z,136.50
2022-12-05T00:18:38.386Z,123.90
2022-12-05T00:21:06.290Z,143.37
2022-12-05T00:23:34.181Z,117.60
2022-12-05T00:26:06.040Z,150.47
2022-12-05T00:28:34.584Z,153.27
2022-12-05T00:31:21.719Z,115.63
2022-12-05T00:33:50.241Z,154.20
2022-12-05T00:36:19.575Z,155.80
2022-12-05T00:38:47.657Z,186.43
2022-12-05T00:41:16.554Z,155.07
2022-12-05T00:43:44.834Z,180.27
2022-12-05T00:46:14.321Z,175.00
2022-12-05T00:48:42.577Z,158.63
2022-12-05T00:51:14.943Z,154.40
2022-12-05T00:53:43.249Z,158.13
2022-12-05T00:56:12.595Z,161.97
2022-12-05T00:58:40.639Z,148.77
2022-12-05T01:01:08.393Z,137.27
2022-12-05T01:03:36.329Z,133.93
2022-12-05T01:06:06.014Z,130.77
2022-12-05T01:08:34.825Z,141.23
2022-12-05T01:11:02.826Z,116.60
2022-12-05T01:13:31.200Z,132.07
2022-12-05T01:15:58.752Z,149.57
2022-12-05T01:18:26.597Z,104.47
2022-12-05T01:20:54.515Z,111.17
2022-12-05T01:23:22.977Z,127.17
2022-12-05T01:25:51.853Z,117.57
2022-12-05T01:28:19.877Z,111.77
2022-12-05T01:30:48.516Z,127.23
2022-12-05T01:33:16.456Z,112.30
2022-12-05T01:35:44.494Z,109.73
2022-12-05T01:38:13.481Z,132.37
2022-12-05T01:40:41.329Z,104.60
2022-12-05T01:43:15.328Z,127.57
2022-12-05T01:45:44.510Z,98.30
2022-12-05T01:48:15.081Z,113.23
2022-12-05T01:50:42.944Z,102.53
2022-12-05T01:53:10.980Z,101.63
2022-12-05T01:55:39.161Z,127.77
2022-12-05T01:58:08.394Z,118.23
2022-12-05T02:00:36.266Z,107.07
2022-12-05T02:03:06.722Z,100.03
2022-12-05T02:05:35.643Z,101.93
2022-12-05T02:08:05.461Z,113.60
2022-12-05T02:10:36.296Z,119.23
2022-12-05T02:15:46.540Z,95.80
2022-12-05T02:18:21.773Z,119.38
2022-12-05T02:20:49.278Z,108.50
2022-12-05T02:23:35.897Z,107.13
2022-12-05T02:26:03.481Z,132.23
2022-12-05T02:28:45.577Z,97.10
2022-12-05T02:31:31.664Z,98.25
2022-12-05T02:34:16.949Z,106.97
2022-12-05T02:36:47.764Z,105.17
2022-12-05T02:39:18.255Z,109.83
2022-12-05T02:41:48.777Z,150.20
2022-12-05T02:44:23.623Z,116.70
2022-12-05T02:46:52.505Z,117.30
2022-12-05T02:49:23.831Z,126.33
2022-12-05T02:51:54.146Z,133.93
2022-12-05T02:54:24.255Z,124.20
2022-12-05T02:56:53.159Z,189.07
2022-12-05T02:59:23.551Z,112.33
2022-12-05T03:01:51.684Z,111.37
2022-12-05T03:04:20.780Z,202.27
2022-12-05T03:06:51.868Z,100.63
2022-12-05T03:09:22.515Z,105.97
2022-12-05T03:11:51.649Z,165.33
2022-12-05T03:14:31.496Z,146.17
2022-12-05T03:17:02.201Z,116.03
2022-12-05T03:19:50.341Z,159.87
2022-12-05T03:22:23.065Z,155.87
2022-12-05T03:24:50.987Z,131.93
2022-12-05T03:27:24.130Z,203.50
2022-12-05T03:30:04.164Z,170.43
2022-12-05T03:32:31.933Z,142.03
2022-12-05T03:35:08.896Z,176.90
2022-12-05T03:37:53.200Z,168.93
2022-12-05T03:40:24.240Z,236.87
2022-12-05T03:42:55.577Z,137.83
2022-12-05T03:45:26.571Z,168.70
2022-12-05T03:48:00.803Z,131.30
2022-12-05T03:50:29.970Z,105.90
2022-12-05T03:53:21.563Z,149.47
2022-12-05T03:55:55.205Z,131.53
2022-12-05T03:58:26.981Z,105.13
2022-12-05T04:00:55.086Z,115.97
2022-12-05T04:03:39.167Z,126.37
2022-12-05T04:06:16.690Z,132.93
2022-12-05T04:08:48.100Z,114.87
2022-12-05T04:11:19.488Z,126.40
2022-12-05T04:13:55.196Z,131.82
2022-12-05T04:16:47.336Z,102.13
2022-12-05T04:19:20.930Z,63.05
2022-12-05T04:21:51.276Z,63.83
2022-12-05T04:24:51.059Z,110.60
2022-12-05T04:27:31.047Z,108.10
2022-12-05T04:29:58.807Z,117.13
2022-12-05T04:32:28.601Z,130.37
2022-12-05T04:34:57.980Z,117.57
2022-12-05T04:37:26.689Z,129.67
2022-12-05T04:39:57.762Z,131.87
2022-12-05T04:42:27.666Z,133.15
2022-12-05T04:44:56.742Z,124.30
2022-12-05T04:47:27.715Z,144.87
2022-12-05T04:49:56.456Z,144.00
2022-12-05T04:52:25.279Z,309.00
2022-12-05T04:54:58.205Z,190.47
2022-12-05T04:57:29.209Z,152.90
2022-12-05T04:59:57.052Z,152.20
2022-12-05T05:02:37.787Z,153.00
2022-12-05T05:05:13.785Z,124.40
2022-12-05T05:07:45.945Z,268.87
2022-12-05T05:10:16.352Z,185.68
2022-12-05T05:12:44.235Z,210.53
2022-12-05T05:15:11.789Z,139.57
2022-12-05T05:17:39.583Z,280.63
2022-12-05T05:20:27.104Z,166.17
2022-12-05T05:22:55.974Z,174.70
2022-12-05T05:25:23.979Z,354.03
2022-12-05T05:27:52.452Z,424.63
2022-12-05T05:30:20.628Z,210.30
2022-12-05T05:32:48.494Z,257.97
2022-12-05T05:35:16.229Z,493.13
2022-12-05T05:37:44.153Z,555.93
2022-12-05T05:40:14.484Z,482.60
2022-12-05T05:42:43.122Z,263.57
2022-12-05T05:45:11.208Z,461.57
2022-12-05T05:47:39.134Z,507.47
2022-12-05T05:50:07.642Z,429.00
2022-12-05T05:52:36.267Z,409.60
2022-12-05T05:55:05.056Z,509.93
2022-12-05T05:57:33.070Z,460.27
2022-12-05T06:00:00.980Z,641.47
2022-12-05T06:02:32.689Z,927.73
2022-12-05T06:05:00.913Z,344.77
2022-12-05T06:07:29.075Z,351.13
2022-12-05T06:09:57.384Z,650.93
2022-12-05T06:12:25.446Z,421.13
2022-12-05T06:14:53.200Z,687.03
2022-12-05T06:17:21.293Z,356.07
2022-12-05T06:19:48.924Z,563.63
2022-12-05T06:22:16.843Z,1145.93
2022-12-05T06:24:44.522Z,445.20
2022-12-05T06:27:12.309Z,575.57
2022-12-05T06:29:39.872Z,816.10
2022-12-05T06:32:09.176Z,482.10
2022-12-05T06:34:37.135Z,373.50
2022-12-05T06:37:05.057Z,706.43
2022-12-05T06:39:32.782Z,640.87
2022-12-05T06:42:01.244Z,543.70
2022-12-05T06:44:29.135Z,430.57
2022-12-05T06:46:56.988Z,415.83
2022-12-05T06:49:36.395Z,497.50
2022-12-05T06:52:05.681Z,385.67
2022-12-05T06:54:33.313Z,724.93
2022-12-05T06:57:01.249Z,1176.73
2022-12-05T06:59:28.757Z,687.40
2022-12-05T07:01:56.688Z,260.43
2022-12-05T07:04:24.705Z,595.30
2022-12-05T07:06:53.735Z,363.27
2022-12-05T07:09:43.663Z,324.80
2022-12-05T07:12:11.789Z,398.37
2022-12-05T07:14:47.498Z,377.03
2022-12-05T07:17:16.397Z,532.40
2022-12-05T07:19:44.063Z,432.30
2022-12-05T07:22:15.702Z,353.10
2022-12-05T07:27:11.805Z,406.73
2022-12-05T07:29:39.343Z,568.17
2022-12-05T07:32:07.480Z,760.43
2022-12-05T07:34:35.131Z,601.90
2022-12-05T07:37:02.979Z,463.13
2022-12-05T07:39:30.735Z,468.30
2022-12-05T07:41:58.501Z,508.87
2022-12-05T07:44:26.719Z,564.30
2022-12-05T07:46:54.524Z,485.63
2022-12-05T07:49:23.557Z,365.57
2022-12-05T07:51:53.151Z,274.93
2022-12-05T07:54:20.628Z,470.40
2022-12-05T07:56:49.333Z,754.37
2022-12-05T07:59:17.143Z,326.83
2022-12-05T08:01:45.087Z,302.70
2022-12-05T08:04:15.503Z,283.47
2022-12-05T08:06:44.229Z,428.10
2022-12-05T08:09:11.886Z,279.67
2022-12-05T08:11:39.756Z,278.70
2022-12-05T08:14:07.502Z,323.47
2022-12-05T08:16:35.446Z,382.97
2022-12-05T08:19:04.260Z,329.87
2022-12-05T08:21:32.527Z,368.57
2022-12-05T08:24:00.162Z,389.03
2022-12-05T08:26:29.572Z,212.73
2022-12-05T08:28:59.539Z,260.60
2022-12-05T08:31:30.145Z,261.67
2022-12-05T08:33:59.619Z,221.60
2022-12-05T08:36:29.309Z,217.27
2022-12-05T08:38:57.662Z,187.87
2022-12-05T08:41:29.952Z,194.57
2022-12-05T08:46:26.260Z,143.27
2022-12-05T08:48:53.871Z,141.03
2022-12-05T08:51:21.925Z,141.47
2022-12-05T08:53:49.507Z,94.47
2022-12-05T08:56:18.921Z,94.13
2022-12-05T08:58:49.736Z,98.57
2022-12-05T09:01:19.719Z,84.95
2022-12-05T09:03:48.277Z,94.60
2022-12-05T09:06:16.332Z,115.50
2022-12-05T09:08:44.504Z,106.30
2022-12-05T09:11:19.972Z,97.40
2022-12-05T09:13:48.313Z,119.45
2022-12-05T09:16:18.056Z,120.55
2022-12-05T09:18:46.091Z,117.20
2022-12-05T09:21:15.535Z,127.05
2022-12-05T09:23:43.437Z,123.00
2022-12-05T09:26:13.349Z,145.38
2022-12-05T09:28:41.762Z,159.77
2022-12-05T09:31:10.993Z,144.70
2022-12-05T09:33:38.764Z,140.88
2022-12-05T09:36:07.614Z,164.27
2022-12-05T09:38:35.994Z,130.15
2022-12-05T09:41:06.721Z,146.00
2022-12-05T09:43:55.871Z,113.35
2022-12-05T09:46:35.759Z,117.05
2022-12-05T09:49:05.073Z,106.07
2022-12-05T09:51:33.210Z,101.63
2022-12-05T09:54:00.741Z,105.55
2022-12-05T09:56:30.225Z,104.10
2022-12-05T09:59:00.702Z,134.63
2022-12-05T10:01:28.923Z,178.52
2022-12-05T10:04:05.483Z,173.00
2022-12-05T10:06:38.213Z,126.05
2022-12-05T10:09:15.519Z,137.60
2022-12-05T10:12:01.781Z,117.47
2022-12-05T10:14:32.126Z,117.72
2022-12-05T10:17:32.566Z,114.05
2022-12-05T10:20:01.503Z,108.40
2022-12-05T10:22:40.133Z,128.85
2022-12-05T10:25:08.711Z,130.30
2022-12-05T10:27:43.500Z,159.77
2022-12-05T10:30:16.142Z,156.43
2022-12-05T10:32:50.468Z,145.65
2022-12-05T10:35:19.905Z,118.55
2022-12-05T10:37:49.846Z,130.02
2022-12-05T10:40:18.751Z,126.72
2022-12-05T10:42:46.911Z,127.82
2022-12-05T10:45:16.669Z,103.57
2022-12-05T10:47:44.790Z,106.90
2022-12-05T10:50:24.090Z,105.03
2022-12-05T10:52:54.121Z,199.73
2022-12-05T10:55:22.658Z,199.50
2022-12-05T10:57:52.151Z,164.20
2022-12-05T11:00:25.400Z,289.50
2022-12-05T11:02:53.435Z,420.50
2022-12-05T11:05:34.725Z,131.93
2022-12-05T11:08:02.589Z,117.90
2022-12-05T11:10:34.760Z,123.28
2022-12-05T11:13:14.492Z,132.02
2022-12-05T11:15:49.391Z,138.85
2022-12-05T11:18:26.404Z,112.45
2022-12-05T11:20:54.962Z,129.10
2022-12-05T11:23:30.680Z,138.07
2022-12-05T11:25:59.402Z,240.98
2022-12-05T11:28:32.430Z,133.75
2022-12-05T11:31:01.787Z,145.25
2022-12-05T11:33:30.719Z,204.60
2022-12-05T11:36:20.281Z,183.50
2022-12-05T11:38:48.421Z,203.07
2022-12-05T11:41:27.920Z,152.57
2022-12-05T11:44:11.009Z,163.82
2022-12-05T11:46:47.765Z,186.15
2022-12-05T11:49:34.285Z,147.70
2022-12-05T11:52:29.199Z,192.73
2022-12-05T11:55:04.843Z,154.07
2022-12-05T11:57:46.115Z,222.60
2022-12-05T12:00:33.033Z,267.30
2022-12-05T12:03:00.569Z,234.38
2022-12-05T12:05:36.591Z,213.70
2022-12-05T12:08:30.456Z,258.33
2022-12-05T12:10:59.605Z,256.02
2022-12-05T12:13:36.367Z,213.27
2022-12-05T12:16:14.301Z,145.20
2022-12-05T12:19:00.509Z,132.73
2022-12-05T12:21:38.632Z,127.53
2022-12-05T12:24:12.494Z,105.32
2022-12-05T12:26:57.299Z,118.53
2022-12-05T12:29:44.995Z,113.18
2022-12-05T12:32:12.964Z,129.93
2022-12-05T12:34:59.634Z,162.25
2022-12-05T12:37:27.689Z,220.18
2022-12-05T12:40:05.626Z,157.30
2022-12-05T12:42:52.105Z,135.48
2022-12-05T12:45:29.010Z,237.88
2022-12-05T12:47:58.206Z,157.75
2022-12-05T12:50:31.749Z,149.57
2022-12-05T12:53:20.414Z,149.68
2022-12-05T12:56:00.669Z,148.32
2022-12-05T12:58:32.684Z,131.18
2022-12-05T13:01:12.762Z,134.30
2022-12-05T13:03:49.903Z,138.05
2022-12-05T13:06:25.585Z,167.25
2022-12-05T13:08:58.871Z,144.00
2022-12-05T13:11:28.538Z,144.73
2022-12-05T13:13:59.366Z,137.68
2022-12-05T13:16:29.718Z,203.65
2022-12-05T13:18:58.181Z,154.35
2022-12-05T13:21:26.642Z,145.60
2022-12-05T13:23:56.129Z,423.63
2022-12-05T13:26:24.357Z,212.02
2022-12-05T13:28:57.599Z,152.52
2022-12-05T13:31:37.213Z,261.85
2022-12-05T13:34:05.300Z,135.57
2022-12-05T13:37:01.017Z,449.77
2022-12-05T13:39:47.465Z,622.17
2022-12-05T13:42:22.763Z,173.68
2022-12-05T13:44:52.967Z,412.55
2022-12-05T13:47:32.499Z,223.13
2022-12-05T13:50:15.154Z,140.30
2022-12-05T13:52:50.308Z,120.88
2022-12-05T13:55:20.996Z,146.68
2022-12-05T13:57:50.416Z,229.77
2022-12-05T14:00:18.362Z,170.60
2022-12-05T14:02:46.521Z,169.73
2022-12-05T14:05:17.362Z,159.80
2022-12-05T14:07:48.891Z,163.90
2022-12-05T14:10:21.031Z,174.85
2022-12-05T14:12:51.846Z,157.77
2022-12-05T14:15:38.867Z,188.35
2022-12-05T14:18:25.179Z,201.13
2022-12-05T14:21:02.548Z,195.07
2022-12-05T14:23:40.486Z,188.98
2022-12-05T14:26:32.643Z,195.15
2022-12-05T14:29:01.347Z,204.00
2022-12-05T14:31:38.274Z,240.70
2022-12-05T14:34:11.739Z,226.25
2022-12-05T14:36:40.873Z,225.65
2022-12-05T14:39:21.758Z,210.95
2022-12-05T14:41:56.471Z,227.80
2022-12-05T14:44:28.860Z,266.52
2022-12-05T14:46:58.785Z,247.93
2022-12-05T14:49:48.433Z,219.23
2022-12-05T14:52:38.663Z,221.02
2022-12-05T14:55:12.083Z,264.70
2022-12-05T14:57:46.846Z,264.38
2022-12-05T15:00:22.826Z,294.02
2022-12-05T15:02:52.998Z,270.20
2022-12-05T15:05:21.152Z,221.73
2022-12-05T15:07:49.689Z,234.77
2022-12-05T15:10:21.614Z,199.52
2022-12-05T15:12:50.478Z,221.70
2022-12-05T15:15:27.423Z,216.15
2022-12-05T15:18:00.847Z,208.93
2022-12-05T15:20:42.532Z,224.05
2022-12-05T15:23:29.277Z,226.20
2022-12-05T15:25:58.020Z,218.30
2022-12-05T15:28:32.041Z,263.38
2022-12-05T15:30:59.898Z,235.32
2022-12-05T15:33:28.661Z,291.83
2022-12-05T15:35:56.715Z,233.65
2022-12-05T15:38:28.004Z,236.93
2022-12-05T15:40:55.712Z,279.92
2022-12-05T15:43:31.995Z,253.65
2022-12-05T15:46:20.797Z,238.13
2022-12-05T15:48:49.367Z,342.10
2022-12-05T15:51:17.527Z,351.95
2022-12-05T15:53:47.060Z,313.77
2022-12-05T15:56:18.950Z,258.30
2022-12-05T15:59:07.178Z,271.02
2022-12-05T16:01:39.556Z,289.42
2022-12-05T16:04:10.659Z,335.88
2022-12-05T16:06:40.917Z,294.73
2022-12-05T16:09:11.721Z,266.13
2022-12-05T16:11:40.072Z,277.20
2022-12-05T16:14:08.497Z,325.10
2022-12-05T16:16:37.790Z,310.90
2022-12-05T16:19:15.592Z,233.30
2022-12-05T16:21:47.807Z,278.17
2022-12-05T16:24:20.598Z,275.02
2022-12-05T16:26:59.108Z,301.95
2022-12-05T16:29:31.028Z,324.30
2022-12-05T16:31:59.852Z,588.95
2022-12-05T16:34:29.631Z,535.58
2022-12-05T16:36:58.026Z,452.55
2022-12-05T16:39:26.697Z,568.53
2022-12-05T16:41:54.739Z,348.63
2022-12-05T16:44:28.638Z,289.48
2022-12-05T16:46:56.832Z,323.83
2022-12-05T16:49:30.662Z,353.77
2022-12-05T16:52:14.324Z,376.13
2022-12-05T16:54:42.887Z,393.38
2022-12-05T16:57:12.942Z,437.63
2022-12-05T16:59:42.995Z,404.92
2022-12-05T17:02:15.235Z,486.38
2022-12-05T17:04:43.476Z,462.25
2022-12-05T17:07:12.252Z,453.25
2022-12-05T17:09:40.075Z,318.85
2022-12-05T17:12:11.858Z,379.88
2022-12-05T17:14:39.738Z,444.80
2022-12-05T17:17:13.431Z,395.58
2022-12-05T17:19:41.388Z,424.85
2022-12-05T17:22:08.987Z,490.98
2022-12-05T17:24:37.040Z,423.77
2022-12-05T17:27:06.886Z,413.75
2022-12-05T17:29:35.972Z,436.38
2022-12-05T17:32:04.056Z,375.42
2022-12-05T17:34:31.957Z,410.60
2022-12-05T17:37:00.214Z,455.75
2022-12-05T17:39:28.802Z,371.35
2022-12-05T17:41:56.901Z,376.00
2022-12-05T17:44:24.849Z,366.90
2022-12-05T17:46:52.542Z,382.23
2022-12-05T17:49:20.520Z,373.52
2022-12-05T17:52:20.149Z,383.25
2022-12-05T17:54:36.420Z,362.48
2022-12-05T17:57:04.146Z,344.75
2022-12-05T17:59:32.009Z,327.13
2022-12-05T18:01:59.625Z,311.25
2022-12-05T18:04:27.519Z,324.08
2022-12-05T18:06:55.096Z,361.75
2022-12-05T18:09:24.034Z,361.50
2022-12-05T18:11:51.651Z,354.10
2022-12-05T18:14:19.536Z,286.48
2022-12-05T18:16:47.165Z,474.98
2022-12-05T18:19:15.695Z,393.67
2022-12-05T18:21:43.270Z,339.02
2022-12-05T18:24:11.299Z,322.50
2022-12-05T18:26:38.997Z,282.02
2022-12-05T18:29:06.934Z,255.68
2022-12-05T18:31:35.220Z,252.73
2022-12-05T18:34:03.098Z,194.68
2022-12-05T18:36:30.762Z,191.95
2022-12-05T18:38:59.217Z,189.70
2022-12-05T18:41:27.337Z,176.30
2022-12-05T18:43:55.422Z,188.90
2022-12-05T18:46:23.455Z,174.80
2022-12-05T18:48:51.517Z,174.27
2022-12-05T18:51:23.779Z,215.80
2022-12-05T18:53:52.987Z,212.98
2022-12-05T18:56:24.245Z,314.98
2022-12-05T18:59:03.009Z,207.85
2022-12-05T19:01:31.807Z,396.15
2022-12-05T19:04:00.619Z,235.15
2022-12-05T19:06:29.910Z,205.73
2022-12-05T19:09:00.066Z,219.48
2022-12-05T19:11:28.471Z,230.20
2022-12-05T19:14:00.887Z,238.65
2022-12-05T19:16:29.034Z,272.27
2022-12-05T19:18:58.133Z,266.98
2022-12-05T19:21:26.678Z,257.17
2022-12-05T19:23:55.089Z,256.67
2022-12-05T19:26:22.846Z,260.15
2022-12-05T19:28:50.951Z,276.15
2022-12-05T19:31:20.090Z,271.88
2022-12-05T19:33:48.910Z,256.45
2022-12-05T19:36:18.301Z,267.27
2022-12-05T19:38:47.067Z,244.93
2022-12-05T19:41:15.834Z,256.13
2022-12-05T19:43:44.845Z,204.57
2022-12-05T19:46:14.206Z,217.73
2022-12-05T19:48:42.677Z,162.15
2022-12-05T19:51:10.400Z,141.82
2022-12-05T19:53:41.141Z,142.85
2022-12-05T19:56:20.148Z,187.32
2022-12-05T19:58:48.885Z,456.35
2022-12-05T20:01:18.023Z,255.38
2022-12-05T20:03:50.136Z,255.70
2022-12-05T20:06:18.614Z,227.80
2022-12-05T20:08:47.291Z,199.20
2022-12-05T20:11:19.279Z,182.27
2022-12-05T20:13:48.152Z,172.02
2022-12-05T20:16:18.676Z,180.40
2022-12-05T20:18:46.968Z,174.32
2022-12-05T20:21:15.449Z,186.30
2022-12-05T20:23:43.380Z,159.63
2022-12-05T20:26:12.594Z,172.63
2022-12-05T20:28:40.481Z,181.23
2022-12-05T20:31:09.072Z,151.85
2022-12-05T20:33:37.273Z,223.52
2022-12-05T20:36:06.421Z,166.60
2022-12-05T20:38:34.386Z,169.98
2022-12-05T20:41:06.492Z,164.52
2022-12-05T20:43:35.094Z,222.27
2022-12-05T20:46:06.617Z,280.63
2022-12-05T20:48:35.126Z,242.07
2022-12-05T20:51:22.363Z,178.75
2022-12-05T20:53:50.313Z,216.18
2022-12-05T20:56:18.952Z,146.90
2022-12-05T20:58:47.901Z,163.75
2022-12-05T21:01:16.477Z,212.18
2022-12-05T21:03:45.411Z,457.80
2022-12-05T21:06:14.378Z,274.75
2022-12-05T21:08:42.662Z,253.93
2022-12-05T21:11:10.769Z,309.92
2022-12-05T21:13:38.996Z,233.30
2022-12-05T21:16:08.758Z,165.57
2022-12-05T21:18:36.956Z,184.75
2022-12-05T21:21:06.168Z,182.02
2022-12-05T21:23:34.793Z,263.80
2022-12-05T21:26:03.846Z,161.75
2022-12-05T21:28:32.108Z,163.82
2022-12-05T21:31:07.261Z,178.05
2022-12-05T21:33:35.682Z,154.77
2022-12-05T21:36:03.321Z,160.48
2022-12-05T21:38:31.364Z,156.35
2022-12-05T21:40:58.958Z,185.75
2022-12-05T21:43:26.784Z,255.35
2022-12-05T21:45:55.042Z,265.25
2022-12-05T21:48:23.783Z,314.55
2022-12-05T21:50:51.437Z,281.23
2022-12-05T21:53:19.356Z,269.23
2022-12-05T21:55:47.270Z,263.05
2022-12-05T21:58:15.413Z,264.58
2022-12-05T22:00:43.232Z,296.13
2022-12-05T22:03:15.188Z,214.43
2022-12-05T22:05:49.611Z,256.02
2022-12-05T22:08:17.541Z,243.57
2022-12-05T22:10:45.422Z,314.52
2022-12-05T22:13:13.298Z,201.40
2022-12-05T22:15:40.880Z,225.85
2022-12-05T22:18:10.958Z,196.68
2022-12-05T22:20:38.686Z,201.55
2022-12-05T22:23:06.435Z,192.65
2022-12-05T22:25:34.165Z,204.75
2022-12-05T22:28:01.958Z,320.55
2022-12-05T22:30:29.733Z,271.05
2022-12-05T22:32:57.510Z,264.98
2022-12-05T22:35:25.066Z,303.10
2022-12-05T22:37:54.435Z,261.58
2022-12-05T22:40:21.979Z,280.55
2022-12-05T22:42:49.747Z,243.70
2022-12-05T22:45:17.375Z,333.83
2022-12-05T22:47:46.689Z,384.17
2022-12-05T22:50:14.215Z,317.35
2022-12-05T22:52:42.748Z,288.70
2022-12-05T22:55:10.236Z,296.45
2022-12-05T22:57:38.152Z,264.48
2022-12-05T23:00:06.612Z,229.23
2022-12-05T23:02:34.624Z,203.45
2022-12-05T23:05:02.266Z,206.27
2022-12-05T23:07:30.165Z,205.23
2022-12-05T23:09:58.137Z,196.23
2022-12-05T23:12:27.347Z,234.68
2022-12-05T23:14:54.848Z,254.68
2022-12-05T23:17:22.698Z,261.55
2022-12-05T23:19:50.222Z,224.18
2022-12-05T23:22:18.205Z,217.02
2022-12-05T23:24:45.750Z,199.88
2022-12-05T23:27:13.585Z,231.93
2022-12-05T23:29:42.516Z,255.10
2022-12-05T23:32:10.346Z,234.55
2022-12-05T23:34:37.871Z,221.45
2022-12-05T23:37:05.820Z,195.13
2022-12-05T23:39:33.377Z,184.95
2022-12-05T23:42:01.265Z,175.45
2022-12-05T23:44:28.788Z,196.98
2022-12-05T23:46:56.668Z,187.52
2022-12-05T23:49:24.274Z,217.43
2022-12-05T23:51:52.378Z,234.68
2022-12-05T23:54:19.956Z,217.85
2022-12-05T23:56:47.745Z,212.77
2022-12-05T23:59:15.368Z,255.65
